sensor_id;sensor_type;location;lat;lon;timestamp;temperature;humidity
45537;DHT22;31262;51.978;5.924;2022-07-06T00:01:31;18.20;58.20
45537;DHT22;31262;51.978;5.924;2022-07-06T00:03:57;18.20;58.40
45537;DHT22;31262;51.978;5.924;2022-07-06T00:06:23;18.20;58.60
45537;DHT22;31262;51.978;5.924;2022-07-06T00:08:49;18.20;58.60
45537;DHT22;31262;51.978;5.924;2022-07-06T00:11:14;18.20;58.70
45537;DHT22;31262;51.978;5.924;2022-07-06T00:13:40;18.10;58.90
45537;DHT22;31262;51.978;5.924;2022-07-06T00:16:06;18.10;59.10
45537;DHT22;31262;51.978;5.924;2022-07-06T00:18:31;18.00;59.10
45537;DHT22;31262;51.978;5.924;2022-07-06T00:20:57;18.00;59.30
45537;DHT22;31262;51.978;5.924;2022-07-06T00:23:22;18.00;59.40
45537;DHT22;31262;51.978;5.924;2022-07-06T00:25:49;18.00;59.40
45537;DHT22;31262;51.978;5.924;2022-07-06T00:28:15;18.00;59.30
45537;DHT22;31262;51.978;5.924;2022-07-06T00:30:40;18.00;59.30
45537;DHT22;31262;51.978;5.924;2022-07-06T00:33:06;18.00;59.40
45537;DHT22;31262;51.978;5.924;2022-07-06T00:35:32;18.00;59.40
45537;DHT22;31262;51.978;5.924;2022-07-06T00:37:58;18.00;59.50
45537;DHT22;31262;51.978;5.924;2022-07-06T00:40:23;17.90;59.50
45537;DHT22;31262;51.978;5.924;2022-07-06T00:42:49;17.80;59.90
45537;DHT22;31262;51.978;5.924;2022-07-06T00:45:16;17.80;60.10
45537;DHT22;31262;51.978;5.924;2022-07-06T00:47:43;17.80;60.30
45537;DHT22;31262;51.978;5.924;2022-07-06T00:50:11;17.80;60.60
45537;DHT22;31262;51.978;5.924;2022-07-06T00:52:53;17.70;60.60
45537;DHT22;31262;51.978;5.924;2022-07-06T00:55:25;17.70;60.70
45537;DHT22;31262;51.978;5.924;2022-07-06T00:57:51;17.60;60.90
45537;DHT22;31262;51.978;5.924;2022-07-06T01:00:20;17.60;61.10
45537;DHT22;31262;51.978;5.924;2022-07-06T01:02:47;17.60;61.20
45537;DHT22;31262;51.978;5.924;2022-07-06T01:05:15;17.50;61.40
45537;DHT22;31262;51.978;5.924;2022-07-06T01:07:42;17.50;61.60
45537;DHT22;31262;51.978;5.924;2022-07-06T01:10:10;17.50;61.70
45537;DHT22;31262;51.978;5.924;2022-07-06T01:12:37;17.50;61.80
45537;DHT22;31262;51.978;5.924;2022-07-06T01:15:05;17.40;62.00
45537;DHT22;31262;51.978;5.924;2022-07-06T01:17:33;17.40;62.10
45537;DHT22;31262;51.978;5.924;2022-07-06T01:20:07;17.40;62.20
45537;DHT22;31262;51.978;5.924;2022-07-06T01:22:33;17.40;62.20
45537;DHT22;31262;51.978;5.924;2022-07-06T01:24:58;17.30;62.60
45537;DHT22;31262;51.978;5.924;2022-07-06T01:27:24;17.20;62.70
45537;DHT22;31262;51.978;5.924;2022-07-06T01:29:50;17.20;63.00
45537;DHT22;31262;51.978;5.924;2022-07-06T01:32:15;17.10;63.00
45537;DHT22;31262;51.978;5.924;2022-07-06T01:34:41;17.10;63.20
45537;DHT22;31262;51.978;5.924;2022-07-06T01:37:06;17.10;63.50
45537;DHT22;31262;51.978;5.924;2022-07-06T01:39:32;17.10;63.60
45537;DHT22;31262;51.978;5.924;2022-07-06T01:41:58;17.20;63.60
45537;DHT22;31262;51.978;5.924;2022-07-06T01:44:23;17.10;63.60
45537;DHT22;31262;51.978;5.924;2022-07-06T01:46:49;17.10;63.60
45537;DHT22;31262;51.978;5.924;2022-07-06T01:49:14;17.20;63.60
45537;DHT22;31262;51.978;5.924;2022-07-06T01:51:40;17.20;63.70
45537;DHT22;31262;51.978;5.924;2022-07-06T01:54:06;17.20;63.70
45537;DHT22;31262;51.978;5.924;2022-07-06T01:56:31;17.20;63.70
45537;DHT22;31262;51.978;5.924;2022-07-06T01:58:57;17.20;63.60
45537;DHT22;31262;51.978;5.924;2022-07-06T02:01:23;17.20;63.60
45537;DHT22;31262;51.978;5.924;2022-07-06T02:03:49;17.20;63.50
45537;DHT22;31262;51.978;5.924;2022-07-06T02:06:14;17.10;63.60
45537;DHT22;31262;51.978;5.924;2022-07-06T02:08:41;17.30;63.70
45537;DHT22;31262;51.978;5.924;2022-07-06T02:11:07;17.30;63.70
45537;DHT22;31262;51.978;5.924;2022-07-06T02:13:33;17.30;64.30
45537;DHT22;31262;51.978;5.924;2022-07-06T02:15:59;17.30;63.70
45537;DHT22;31262;51.978;5.924;2022-07-06T02:18:25;17.30;63.70
45537;DHT22;31262;51.978;5.924;2022-07-06T02:20:50;17.20;63.80
45537;DHT22;31262;51.978;5.924;2022-07-06T02:23:16;17.20;63.90
45537;DHT22;31262;51.978;5.924;2022-07-06T02:25:41;17.20;64.00
45537;DHT22;31262;51.978;5.924;2022-07-06T02:28:07;17.30;64.00
45537;DHT22;31262;51.978;5.924;2022-07-06T02:30:33;17.10;64.00
45537;DHT22;31262;51.978;5.924;2022-07-06T02:32:58;17.30;64.00
45537;DHT22;31262;51.978;5.924;2022-07-06T02:35:24;17.50;63.60
45537;DHT22;31262;51.978;5.924;2022-07-06T02:37:50;17.80;63.00
45537;DHT22;31262;51.978;5.924;2022-07-06T02:40:16;18.10;62.20
45537;DHT22;31262;51.978;5.924;2022-07-06T02:42:41;18.10;61.70
45537;DHT22;31262;51.978;5.924;2022-07-06T02:45:08;18.10;61.60
45537;DHT22;31262;51.978;5.924;2022-07-06T02:47:34;17.90;61.70
45537;DHT22;31262;51.978;5.924;2022-07-06T02:49:59;17.90;62.10
45537;DHT22;31262;51.978;5.924;2022-07-06T02:52:25;17.80;62.40
45537;DHT22;31262;51.978;5.924;2022-07-06T02:54:51;17.70;62.60
45537;DHT22;31262;51.978;5.924;2022-07-06T02:57:17;17.60;62.60
45537;DHT22;31262;51.978;5.924;2022-07-06T02:59:43;17.60;62.60
45537;DHT22;31262;51.978;5.924;2022-07-06T03:02:10;17.50;62.60
45537;DHT22;31262;51.978;5.924;2022-07-06T03:04:35;17.60;62.80
45537;DHT22;31262;51.978;5.924;2022-07-06T03:07:01;17.50;62.70
45537;DHT22;31262;51.978;5.924;2022-07-06T03:09:27;17.50;62.80
45537;DHT22;31262;51.978;5.924;2022-07-06T03:11:53;17.50;62.80
45537;DHT22;31262;51.978;5.924;2022-07-06T03:14:18;17.40;62.80
45537;DHT22;31262;51.978;5.924;2022-07-06T03:16:45;17.40;62.80
45537;DHT22;31262;51.978;5.924;2022-07-06T03:19:11;17.40;62.80
45537;DHT22;31262;51.978;5.924;2022-07-06T03:21:37;17.40;62.90
45537;DHT22;31262;51.978;5.924;2022-07-06T03:24:03;17.50;62.90
45537;DHT22;31262;51.978;5.924;2022-07-06T03:26:29;17.50;63.00
45537;DHT22;31262;51.978;5.924;2022-07-06T03:28:54;17.40;63.00
45537;DHT22;31262;51.978;5.924;2022-07-06T03:31:20;17.40;63.20
45537;DHT22;31262;51.978;5.924;2022-07-06T03:33:46;17.40;63.50
45537;DHT22;31262;51.978;5.924;2022-07-06T03:36:12;17.40;63.70
45537;DHT22;31262;51.978;5.924;2022-07-06T03:38:38;17.30;63.70
45537;DHT22;31262;51.978;5.924;2022-07-06T03:41:04;17.40;63.80
45537;DHT22;31262;51.978;5.924;2022-07-06T03:43:29;17.40;64.00
45537;DHT22;31262;51.978;5.924;2022-07-06T03:45:55;17.40;64.10
45537;DHT22;31262;51.978;5.924;2022-07-06T03:48:21;17.50;63.90
45537;DHT22;31262;51.978;5.924;2022-07-06T03:50:47;17.50;63.80
45537;DHT22;31262;51.978;5.924;2022-07-06T03:53:12;17.50;63.80
45537;DHT22;31262;51.978;5.924;2022-07-06T03:55:38;17.50;63.80
45537;DHT22;31262;51.978;5.924;2022-07-06T03:58:03;17.50;64.00
45537;DHT22;31262;51.978;5.924;2022-07-06T04:00:29;17.40;64.10
45537;DHT22;31262;51.978;5.924;2022-07-06T04:02:55;17.40;64.10
45537;DHT22;31262;51.978;5.924;2022-07-06T04:05:20;17.40;64.30
45537;DHT22;31262;51.978;5.924;2022-07-06T04:07:47;17.50;64.30
45537;DHT22;31262;51.978;5.924;2022-07-06T04:10:14;17.40;64.20
45537;DHT22;31262;51.978;5.924;2022-07-06T04:12:43;17.50;64.30
45537;DHT22;31262;51.978;5.924;2022-07-06T04:15:10;17.50;64.20
45537;DHT22;31262;51.978;5.924;2022-07-06T04:17:36;17.50;64.20
45537;DHT22;31262;51.978;5.924;2022-07-06T04:20:17;17.50;64.30
45537;DHT22;31262;51.978;5.924;2022-07-06T04:22:43;17.50;64.40
45537;DHT22;31262;51.978;5.924;2022-07-06T04:25:09;17.40;64.50
45537;DHT22;31262;51.978;5.924;2022-07-06T04:27:35;17.40;64.50
45537;DHT22;31262;51.978;5.924;2022-07-06T04:30:02;17.40;64.40
45537;DHT22;31262;51.978;5.924;2022-07-06T04:32:28;17.70;64.10
45537;DHT22;31262;51.978;5.924;2022-07-06T04:34:54;18.00;63.60
45537;DHT22;31262;51.978;5.924;2022-07-06T04:37:19;18.20;62.90
45537;DHT22;31262;51.978;5.924;2022-07-06T04:39:45;18.40;62.40
45537;DHT22;31262;51.978;5.924;2022-07-06T04:42:10;18.40;62.10
45537;DHT22;31262;51.978;5.924;2022-07-06T04:44:36;18.50;62.00
45537;DHT22;31262;51.978;5.924;2022-07-06T04:47:02;18.40;62.30
45537;DHT22;31262;51.978;5.924;2022-07-06T04:49:27;18.30;62.60
45537;DHT22;31262;51.978;5.924;2022-07-06T04:51:53;18.20;62.70
45537;DHT22;31262;51.978;5.924;2022-07-06T04:54:19;18.10;63.10
45537;DHT22;31262;51.978;5.924;2022-07-06T04:56:44;17.90;63.20
45537;DHT22;31262;51.978;5.924;2022-07-06T04:59:12;18.00;63.80
45537;DHT22;31262;51.978;5.924;2022-07-06T05:01:37;18.20;63.70
45537;DHT22;31262;51.978;5.924;2022-07-06T05:04:03;18.40;63.40
45537;DHT22;31262;51.978;5.924;2022-07-06T05:06:29;18.70;62.90
45537;DHT22;31262;51.978;5.924;2022-07-06T05:08:54;18.90;62.40
45537;DHT22;31262;51.978;5.924;2022-07-06T05:11:20;19.00;61.70
45537;DHT22;31262;51.978;5.924;2022-07-06T05:13:46;19.10;61.50
45537;DHT22;31262;51.978;5.924;2022-07-06T05:16:11;19.10;61.30
45537;DHT22;31262;51.978;5.924;2022-07-06T05:18:37;19.10;61.40
45537;DHT22;31262;51.978;5.924;2022-07-06T05:21:02;19.00;61.40
45537;DHT22;31262;51.978;5.924;2022-07-06T05:23:28;19.00;61.50
45537;DHT22;31262;51.978;5.924;2022-07-06T05:25:54;18.90;61.70
45537;DHT22;31262;51.978;5.924;2022-07-06T05:28:20;18.90;61.60
45537;DHT22;31262;51.978;5.924;2022-07-06T05:30:45;18.90;61.80
45537;DHT22;31262;51.978;5.924;2022-07-06T05:33:11;18.80;61.90
45537;DHT22;31262;51.978;5.924;2022-07-06T05:35:36;18.60;62.10
45537;DHT22;31262;51.978;5.924;2022-07-06T05:38:02;18.50;62.40
45537;DHT22;31262;51.978;5.924;2022-07-06T05:40:27;18.50;62.70
45537;DHT22;31262;51.978;5.924;2022-07-06T05:42:53;18.30;63.00
45537;DHT22;31262;51.978;5.924;2022-07-06T05:45:19;18.10;63.30
45537;DHT22;31262;51.978;5.924;2022-07-06T05:47:44;18.20;63.60
45537;DHT22;31262;51.978;5.924;2022-07-06T05:50:28;18.10;63.50
45537;DHT22;31262;51.978;5.924;2022-07-06T05:52:59;18.00;64.10
45537;DHT22;31262;51.978;5.924;2022-07-06T05:55:25;17.90;64.40
45537;DHT22;31262;51.978;5.924;2022-07-06T05:57:51;17.70;64.90
45537;DHT22;31262;51.978;5.924;2022-07-06T06:00:20;17.70;65.20
45537;DHT22;31262;51.978;5.924;2022-07-06T06:02:46;17.70;65.30
45537;DHT22;31262;51.978;5.924;2022-07-06T06:05:13;17.80;65.50
45537;DHT22;31262;51.978;5.924;2022-07-06T06:07:40;17.90;65.20
45537;DHT22;31262;51.978;5.924;2022-07-06T06:10:10;17.90;65.10
45537;DHT22;31262;51.978;5.924;2022-07-06T06:12:36;18.10;64.70
45537;DHT22;31262;51.978;5.924;2022-07-06T06:15:03;18.20;64.30
45537;DHT22;31262;51.978;5.924;2022-07-06T06:17:28;18.30;63.80
45537;DHT22;31262;51.978;5.924;2022-07-06T06:19:54;18.40;63.50
45537;DHT22;31262;51.978;5.924;2022-07-06T06:22:20;18.60;63.30
45537;DHT22;31262;51.978;5.924;2022-07-06T06:24:46;18.60;63.00
45537;DHT22;31262;51.978;5.924;2022-07-06T06:27:11;18.80;62.70
45537;DHT22;31262;51.978;5.924;2022-07-06T06:29:37;18.80;62.50
45537;DHT22;31262;51.978;5.924;2022-07-06T06:32:03;18.90;62.40
45537;DHT22;31262;51.978;5.924;2022-07-06T06:34:31;19.00;62.00
45537;DHT22;31262;51.978;5.924;2022-07-06T06:36:57;19.00;61.80
45537;DHT22;31262;51.978;5.924;2022-07-06T06:39:22;19.10;61.60
45537;DHT22;31262;51.978;5.924;2022-07-06T06:41:48;19.20;61.50
45537;DHT22;31262;51.978;5.924;2022-07-06T06:44:13;19.30;61.40
45537;DHT22;31262;51.978;5.924;2022-07-06T06:46:40;19.40;61.30
45537;DHT22;31262;51.978;5.924;2022-07-06T06:49:05;19.40;61.00
45537;DHT22;31262;51.978;5.924;2022-07-06T06:51:32;19.50;60.90
45537;DHT22;31262;51.978;5.924;2022-07-06T06:53:58;19.60;60.70
45537;DHT22;31262;51.978;5.924;2022-07-06T06:56:23;19.60;60.40
45537;DHT22;31262;51.978;5.924;2022-07-06T06:58:49;19.70;60.20
45537;DHT22;31262;51.978;5.924;2022-07-06T07:01:14;19.80;60.10
45537;DHT22;31262;51.978;5.924;2022-07-06T07:03:40;19.90;59.60
45537;DHT22;31262;51.978;5.924;2022-07-06T07:06:05;19.90;59.60
45537;DHT22;31262;51.978;5.924;2022-07-06T07:08:31;20.00;60.00
45537;DHT22;31262;51.978;5.924;2022-07-06T07:10:57;20.00;58.90
45537;DHT22;31262;51.978;5.924;2022-07-06T07:13:23;20.00;58.70
45537;DHT22;31262;51.978;5.924;2022-07-06T07:15:48;20.00;58.80
45537;DHT22;31262;51.978;5.924;2022-07-06T07:18:14;20.10;59.30
45537;DHT22;31262;51.978;5.924;2022-07-06T07:20:39;20.20;58.50
45537;DHT22;31262;51.978;5.924;2022-07-06T07:23:05;20.30;58.50
45537;DHT22;31262;51.978;5.924;2022-07-06T07:25:31;20.30;58.70
45537;DHT22;31262;51.978;5.924;2022-07-06T07:27:56;20.40;58.40
45537;DHT22;31262;51.978;5.924;2022-07-06T07:30:22;20.60;58.20
45537;DHT22;31262;51.978;5.924;2022-07-06T07:32:48;20.60;58.00
45537;DHT22;31262;51.978;5.924;2022-07-06T07:35:13;20.70;57.80
45537;DHT22;31262;51.978;5.924;2022-07-06T07:37:39;20.70;57.40
45537;DHT22;31262;51.978;5.924;2022-07-06T07:40:05;20.80;57.00
45537;DHT22;31262;51.978;5.924;2022-07-06T07:42:31;20.90;56.40
45537;DHT22;31262;51.978;5.924;2022-07-06T07:44:57;21.00;56.50
45537;DHT22;31262;51.978;5.924;2022-07-06T07:47:22;21.00;55.90
45537;DHT22;31262;51.978;5.924;2022-07-06T07:49:48;21.10;55.30
45537;DHT22;31262;51.978;5.924;2022-07-06T07:52:13;21.20;55.20
45537;DHT22;31262;51.978;5.924;2022-07-06T07:54:39;21.20;55.20
45537;DHT22;31262;51.978;5.924;2022-07-06T07:57:05;21.30;54.90
45537;DHT22;31262;51.978;5.924;2022-07-06T07:59:30;21.40;54.10
45537;DHT22;31262;51.978;5.924;2022-07-06T08:01:56;21.40;53.40
45537;DHT22;31262;51.978;5.924;2022-07-06T08:04:22;21.40;52.50
45537;DHT22;31262;51.978;5.924;2022-07-06T08:06:48;21.50;52.40
45537;DHT22;31262;51.978;5.924;2022-07-06T08:09:13;21.50;51.90
45537;DHT22;31262;51.978;5.924;2022-07-06T08:11:39;21.50;51.50
45537;DHT22;31262;51.978;5.924;2022-07-06T08:14:05;21.60;51.30
45537;DHT22;31262;51.978;5.924;2022-07-06T08:16:30;21.60;50.90
45537;DHT22;31262;51.978;5.924;2022-07-06T08:18:56;21.70;51.00
45537;DHT22;31262;51.978;5.924;2022-07-06T08:21:22;21.70;50.90
45537;DHT22;31262;51.978;5.924;2022-07-06T08:23:48;21.80;51.20
45537;DHT22;31262;51.978;5.924;2022-07-06T08:26:13;22.00;50.00
45537;DHT22;31262;51.978;5.924;2022-07-06T08:28:39;22.10;49.30
45537;DHT22;31262;51.978;5.924;2022-07-06T08:31:04;22.30;49.10
45537;DHT22;31262;51.978;5.924;2022-07-06T08:33:30;22.40;48.70
45537;DHT22;31262;51.978;5.924;2022-07-06T08:35:56;22.50;48.60
45537;DHT22;31262;51.978;5.924;2022-07-06T08:38:21;22.70;48.00
45537;DHT22;31262;51.978;5.924;2022-07-06T08:40:49;22.80;47.40
45537;DHT22;31262;51.978;5.924;2022-07-06T08:43:15;22.90;47.50
45537;DHT22;31262;51.978;5.924;2022-07-06T08:45:41;23.00;47.40
45537;DHT22;31262;51.978;5.924;2022-07-06T08:48:11;23.10;46.90
45537;DHT22;31262;51.978;5.924;2022-07-06T08:50:38;23.10;46.00
45537;DHT22;31262;51.978;5.924;2022-07-06T08:53:05;23.10;45.80
45537;DHT22;31262;51.978;5.924;2022-07-06T08:55:31;23.10;45.90
45537;DHT22;31262;51.978;5.924;2022-07-06T08:57:57;23.10;46.00
45537;DHT22;31262;51.978;5.924;2022-07-06T09:00:24;23.00;45.80
45537;DHT22;31262;51.978;5.924;2022-07-06T09:02:52;22.90;45.40
45537;DHT22;31262;51.978;5.924;2022-07-06T09:05:23;22.90;44.80
45537;DHT22;31262;51.978;5.924;2022-07-06T09:07:49;22.80;44.70
45537;DHT22;31262;51.978;5.924;2022-07-06T09:10:18;22.90;44.50
45537;DHT22;31262;51.978;5.924;2022-07-06T09:12:44;22.90;44.40
45537;DHT22;31262;51.978;5.924;2022-07-06T09:15:10;22.70;44.70
45537;DHT22;31262;51.978;5.924;2022-07-06T09:17:40;23.00;44.80
45537;DHT22;31262;51.978;5.924;2022-07-06T09:20:10;23.10;44.20
45537;DHT22;31262;51.978;5.924;2022-07-06T09:22:37;23.20;44.40
45537;DHT22;31262;51.978;5.924;2022-07-06T09:25:08;23.20;44.60
45537;DHT22;31262;51.978;5.924;2022-07-06T09:27:38;23.30;44.00
45537;DHT22;31262;51.978;5.924;2022-07-06T09:30:05;23.30;43.20
45537;DHT22;31262;51.978;5.924;2022-07-06T09:32:31;23.30;43.10
45537;DHT22;31262;51.978;5.924;2022-07-06T09:34:56;23.20;43.00
45537;DHT22;31262;51.978;5.924;2022-07-06T09:37:22;23.10;43.30
45537;DHT22;31262;51.978;5.924;2022-07-06T09:39:50;23.10;43.10
45537;DHT22;31262;51.978;5.924;2022-07-06T09:42:16;23.10;43.90
45537;DHT22;31262;51.978;5.924;2022-07-06T09:44:42;23.10;44.00
45537;DHT22;31262;51.978;5.924;2022-07-06T09:47:09;23.20;45.20
45537;DHT22;31262;51.978;5.924;2022-07-06T09:49:39;23.40;44.30
45537;DHT22;31262;51.978;5.924;2022-07-06T09:52:07;23.50;44.10
45537;DHT22;31262;51.978;5.924;2022-07-06T09:54:34;23.70;43.90
45537;DHT22;31262;51.978;5.924;2022-07-06T09:57:01;23.80;43.50
45537;DHT22;31262;51.978;5.924;2022-07-06T09:59:28;23.90;43.00
45537;DHT22;31262;51.978;5.924;2022-07-06T10:01:56;24.00;42.80
45537;DHT22;31262;51.978;5.924;2022-07-06T10:04:24;24.10;42.60
45537;DHT22;31262;51.978;5.924;2022-07-06T10:06:50;24.10;42.40
45537;DHT22;31262;51.978;5.924;2022-07-06T10:09:16;24.20;42.30
45537;DHT22;31262;51.978;5.924;2022-07-06T10:11:56;24.30;42.60
45537;DHT22;31262;51.978;5.924;2022-07-06T10:14:24;24.40;42.90
45537;DHT22;31262;51.978;5.924;2022-07-06T10:16:50;24.40;42.50
45537;DHT22;31262;51.978;5.924;2022-07-06T10:19:18;24.40;42.20
45537;DHT22;31262;51.978;5.924;2022-07-06T10:21:44;24.40;42.70
45537;DHT22;31262;51.978;5.924;2022-07-06T10:24:10;24.50;42.30
45537;DHT22;31262;51.978;5.924;2022-07-06T10:26:38;24.50;41.70
45537;DHT22;31262;51.978;5.924;2022-07-06T10:29:05;24.60;41.70
45537;DHT22;31262;51.978;5.924;2022-07-06T10:31:32;24.60;41.60
45537;DHT22;31262;51.978;5.924;2022-07-06T10:34:00;24.60;42.00
45537;DHT22;31262;51.978;5.924;2022-07-06T10:36:28;24.70;42.00
45537;DHT22;31262;51.978;5.924;2022-07-06T10:38:54;24.70;41.80
45537;DHT22;31262;51.978;5.924;2022-07-06T10:41:40;24.80;41.10
45537;DHT22;31262;51.978;5.924;2022-07-06T10:44:22;24.90;40.40
45537;DHT22;31262;51.978;5.924;2022-07-06T10:46:50;24.90;41.30
45537;DHT22;31262;51.978;5.924;2022-07-06T10:49:17;24.90;40.80
45537;DHT22;31262;51.978;5.924;2022-07-06T10:51:42;25.10;40.80
45537;DHT22;31262;51.978;5.924;2022-07-06T10:54:09;25.10;41.20
45537;DHT22;31262;51.978;5.924;2022-07-06T10:56:51;25.20;40.80
45537;DHT22;31262;51.978;5.924;2022-07-06T10:59:23;25.30;40.50
45537;DHT22;31262;51.978;5.924;2022-07-06T11:02:18;25.30;40.20
45537;DHT22;31262;51.978;5.924;2022-07-06T11:04:46;25.30;39.90
45537;DHT22;31262;51.978;5.924;2022-07-06T11:07:14;25.20;40.20
45537;DHT22;31262;51.978;5.924;2022-07-06T11:09:41;25.10;40.20
45537;DHT22;31262;51.978;5.924;2022-07-06T11:12:20;25.20;39.80
45537;DHT22;31262;51.978;5.924;2022-07-06T11:14:50;25.30;40.30
45537;DHT22;31262;51.978;5.924;2022-07-06T11:17:16;25.30;40.10
45537;DHT22;31262;51.978;5.924;2022-07-06T11:22:16;25.40;40.20
45537;DHT22;31262;51.978;5.924;2022-07-06T11:24:42;25.30;39.80
45537;DHT22;31262;51.978;5.924;2022-07-06T11:27:09;25.20;39.60
45537;DHT22;31262;51.978;5.924;2022-07-06T11:29:35;25.20;39.60
45537;DHT22;31262;51.978;5.924;2022-07-06T11:32:05;25.30;39.00
45537;DHT22;31262;51.978;5.924;2022-07-06T11:34:36;25.40;39.40
45537;DHT22;31262;51.978;5.924;2022-07-06T11:37:08;25.60;39.60
45537;DHT22;31262;51.978;5.924;2022-07-06T11:39:36;25.70;39.20
45537;DHT22;31262;51.978;5.924;2022-07-06T11:42:03;25.70;39.90
45537;DHT22;31262;51.978;5.924;2022-07-06T11:44:32;25.70;39.80
45537;DHT22;31262;51.978;5.924;2022-07-06T11:46:58;25.70;39.50
45537;DHT22;31262;51.978;5.924;2022-07-06T11:49:27;25.70;39.40
45537;DHT22;31262;51.978;5.924;2022-07-06T11:51:52;25.80;39.80
45537;DHT22;31262;51.978;5.924;2022-07-06T11:54:21;25.70;38.00
45537;DHT22;31262;51.978;5.924;2022-07-06T11:56:51;25.50;37.50
45537;DHT22;31262;51.978;5.924;2022-07-06T11:59:28;25.30;38.50
45537;DHT22;31262;51.978;5.924;2022-07-06T12:02:10;25.20;39.10
45537;DHT22;31262;51.978;5.924;2022-07-06T12:04:38;25.20;40.30
45537;DHT22;31262;51.978;5.924;2022-07-06T12:07:08;25.20;40.10
45537;DHT22;31262;51.978;5.924;2022-07-06T12:09:38;25.50;40.30
45537;DHT22;31262;51.978;5.924;2022-07-06T12:12:05;25.40;39.80
45537;DHT22;31262;51.978;5.924;2022-07-06T12:14:33;25.40;40.50
45537;DHT22;31262;51.978;5.924;2022-07-06T12:17:17;25.50;40.60
45537;DHT22;31262;51.978;5.924;2022-07-06T12:19:43;25.60;40.10
45537;DHT22;31262;51.978;5.924;2022-07-06T12:22:09;25.70;40.00
45537;DHT22;31262;51.978;5.924;2022-07-06T12:24:36;25.70;38.50
45537;DHT22;31262;51.978;5.924;2022-07-06T12:27:19;25.60;38.80
45537;DHT22;31262;51.978;5.924;2022-07-06T12:29:47;25.40;38.70
45537;DHT22;31262;51.978;5.924;2022-07-06T12:32:20;25.20;39.40
45537;DHT22;31262;51.978;5.924;2022-07-06T12:34:47;25.20;40.00
45537;DHT22;31262;51.978;5.924;2022-07-06T12:37:27;25.20;40.70
45537;DHT22;31262;51.978;5.924;2022-07-06T12:39:52;25.40;40.40
45537;DHT22;31262;51.978;5.924;2022-07-06T12:42:18;25.40;38.30
45537;DHT22;31262;51.978;5.924;2022-07-06T12:44:50;25.40;39.70
45537;DHT22;31262;51.978;5.924;2022-07-06T12:47:21;25.50;39.60
45537;DHT22;31262;51.978;5.924;2022-07-06T12:49:49;25.60;38.60
45537;DHT22;31262;51.978;5.924;2022-07-06T12:52:28;25.60;39.70
45537;DHT22;31262;51.978;5.924;2022-07-06T12:54:54;25.80;40.30
45537;DHT22;31262;51.978;5.924;2022-07-06T12:57:21;25.90;39.20
45537;DHT22;31262;51.978;5.924;2022-07-06T12:59:58;25.90;38.30
45537;DHT22;31262;51.978;5.924;2022-07-06T13:02:33;25.70;38.50
45537;DHT22;31262;51.978;5.924;2022-07-06T13:05:08;25.70;39.70
45537;DHT22;31262;51.978;5.924;2022-07-06T13:07:36;25.70;39.40
45537;DHT22;31262;51.978;5.924;2022-07-06T13:12:30;25.70;38.70
45537;DHT22;31262;51.978;5.924;2022-07-06T13:14:55;25.80;39.50
45537;DHT22;31262;51.978;5.924;2022-07-06T13:17:21;25.90;39.70
45537;DHT22;31262;51.978;5.924;2022-07-06T13:19:47;25.90;39.50
45537;DHT22;31262;51.978;5.924;2022-07-06T13:22:12;26.00;40.30
45537;DHT22;31262;51.978;5.924;2022-07-06T13:24:38;26.10;39.70
45537;DHT22;31262;51.978;5.924;2022-07-06T13:27:04;26.20;39.20
45537;DHT22;31262;51.978;5.924;2022-07-06T13:29:29;26.30;39.70
45537;DHT22;31262;51.978;5.924;2022-07-06T13:31:55;26.30;38.00
45537;DHT22;31262;51.978;5.924;2022-07-06T13:34:21;26.20;39.00
45537;DHT22;31262;51.978;5.924;2022-07-06T13:36:47;26.10;39.80
45537;DHT22;31262;51.978;5.924;2022-07-06T13:39:12;26.10;39.50
45537;DHT22;31262;51.978;5.924;2022-07-06T13:41:38;26.00;38.90
45537;DHT22;31262;51.978;5.924;2022-07-06T13:44:04;26.00;39.30
45537;DHT22;31262;51.978;5.924;2022-07-06T13:46:30;26.00;39.80
45537;DHT22;31262;51.978;5.924;2022-07-06T13:48:57;26.10;40.80
45537;DHT22;31262;51.978;5.924;2022-07-06T13:51:24;26.20;40.10
45537;DHT22;31262;51.978;5.924;2022-07-06T13:53:52;26.20;40.30
45537;DHT22;31262;51.978;5.924;2022-07-06T13:56:18;26.30;40.70
45537;DHT22;31262;51.978;5.924;2022-07-06T13:58:44;26.50;40.30
45537;DHT22;31262;51.978;5.924;2022-07-06T14:01:17;26.60;40.40
45537;DHT22;31262;51.978;5.924;2022-07-06T14:03:43;26.70;39.40
45537;DHT22;31262;51.978;5.924;2022-07-06T14:06:09;26.70;39.10
45537;DHT22;31262;51.978;5.924;2022-07-06T14:08:35;26.80;39.40
45537;DHT22;31262;51.978;5.924;2022-07-06T14:11:03;26.80;39.00
45537;DHT22;31262;51.978;5.924;2022-07-06T14:13:29;26.80;39.10
45537;DHT22;31262;51.978;5.924;2022-07-06T14:15:54;26.70;39.00
45537;DHT22;31262;51.978;5.924;2022-07-06T14:18:20;26.70;39.40
45537;DHT22;31262;51.978;5.924;2022-07-06T14:20:47;26.70;39.40
45537;DHT22;31262;51.978;5.924;2022-07-06T14:23:13;26.70;38.80
45537;DHT22;31262;51.978;5.924;2022-07-06T14:25:40;26.60;37.40
45537;DHT22;31262;51.978;5.924;2022-07-06T14:28:06;26.30;37.30
45537;DHT22;31262;51.978;5.924;2022-07-06T14:30:33;26.00;38.70
45537;DHT22;31262;51.978;5.924;2022-07-06T14:32:59;25.90;39.10
45537;DHT22;31262;51.978;5.924;2022-07-06T14:35:24;25.90;38.00
45537;DHT22;31262;51.978;5.924;2022-07-06T14:37:50;25.80;38.60
45537;DHT22;31262;51.978;5.924;2022-07-06T14:40:16;25.70;38.30
45537;DHT22;31262;51.978;5.924;2022-07-06T14:42:42;25.80;39.30
45537;DHT22;31262;51.978;5.924;2022-07-06T14:45:08;25.80;39.30
45537;DHT22;31262;51.978;5.924;2022-07-06T14:47:34;25.90;39.50
45537;DHT22;31262;51.978;5.924;2022-07-06T14:50:02;26.00;39.20
45537;DHT22;31262;51.978;5.924;2022-07-06T14:52:28;26.00;39.90
45537;DHT22;31262;51.978;5.924;2022-07-06T14:54:54;26.00;40.00
45537;DHT22;31262;51.978;5.924;2022-07-06T14:57:20;26.00;38.40
45537;DHT22;31262;51.978;5.924;2022-07-06T14:59:46;25.90;39.10
45537;DHT22;31262;51.978;5.924;2022-07-06T15:02:11;26.00;39.30
45537;DHT22;31262;51.978;5.924;2022-07-06T15:04:37;25.90;39.30
45537;DHT22;31262;51.978;5.924;2022-07-06T15:07:03;25.90;39.70
45537;DHT22;31262;51.978;5.924;2022-07-06T15:09:28;25.90;39.60
45537;DHT22;31262;51.978;5.924;2022-07-06T15:11:56;26.00;39.90
45537;DHT22;31262;51.978;5.924;2022-07-06T15:14:22;25.90;39.90
45537;DHT22;31262;51.978;5.924;2022-07-06T15:16:48;25.80;39.80
45537;DHT22;31262;51.978;5.924;2022-07-06T15:19:15;25.80;40.20
45537;DHT22;31262;51.978;5.924;2022-07-06T15:21:41;25.70;40.70
45537;DHT22;31262;51.978;5.924;2022-07-06T15:24:06;25.70;40.20
45537;DHT22;31262;51.978;5.924;2022-07-06T15:26:32;25.70;40.60
45537;DHT22;31262;51.978;5.924;2022-07-06T15:28:58;25.70;40.80
45537;DHT22;31262;51.978;5.924;2022-07-06T15:31:24;25.60;40.50
45537;DHT22;31262;51.978;5.924;2022-07-06T15:33:49;25.60;40.60